createdAt,value
2022-11-07T00:01:11.694Z,12.98
2022-11-07T00:03:38.008Z,12.94
2022-11-07T00:06:04.341Z,12.90
2022-11-07T00:08:30.676Z,12.88
2022-11-07T00:10:56.997Z,12.86
2022-11-07T00:13:23.325Z,12.87
2022-11-07T00:15:49.670Z,12.86
2022-11-07T00:18:16.011Z,12.86
2022-11-07T00:20:42.366Z,12.84
2022-11-07T00:23:08.685Z,12.81
2022-11-07T00:25:35.018Z,12.80
2022-11-07T00:28:01.340Z,12.79
2022-11-07T00:30:27.680Z,12.76
2022-11-07T00:32:59.023Z,12.75
2022-11-07T00:35:20.342Z,12.74
2022-11-07T00:37:46.662Z,12.73
2022-11-07T00:40:13.005Z,12.72
2022-11-07T00:42:39.343Z,12.71
2022-11-07T00:45:05.684Z,12.71
2022-11-07T00:47:32.035Z,12.70
2022-11-07T00:49:58.357Z,12.67
2022-11-07T00:52:24.718Z,12.62
2022-11-07T00:54:51.035Z,12.59
2022-11-07T00:57:17.361Z,12.59
2022-11-07T00:59:43.679Z,12.58
2022-11-07T01:02:10.154Z,12.55
2022-11-07T01:04:36.345Z,12.53
2022-11-07T01:07:02.666Z,12.49
2022-11-07T01:09:29.003Z,12.47
2022-11-07T01:11:55.342Z,12.45
2022-11-07T01:14:21.671Z,12.45
2022-11-07T01:16:48.014Z,12.44
2022-11-07T01:19:14.355Z,12.43
2022-11-07T01:21:40.677Z,12.43
2022-11-07T01:24:07.007Z,12.43
2022-11-07T01:26:33.342Z,12.42
2022-11-07T01:28:59.697Z,12.41
2022-11-07T01:31:26.057Z,12.41
2022-11-07T01:33:52.376Z,12.40
2022-11-07T01:36:18.708Z,12.34
2022-11-07T01:38:45.061Z,12.30
2022-11-07T01:41:11.383Z,12.26
2022-11-07T01:43:37.708Z,12.25
2022-11-07T01:46:04.048Z,12.25
2022-11-07T01:48:30.365Z,12.24
2022-11-07T01:50:56.706Z,12.23
2022-11-07T01:53:23.053Z,12.22
2022-11-07T01:55:49.371Z,12.22
2022-11-07T01:58:15.725Z,12.21
2022-11-07T02:00:42.064Z,12.19
2022-11-07T02:03:08.430Z,12.20
2022-11-07T02:05:34.786Z,12.21
2022-11-07T02:08:01.088Z,12.21
2022-11-07T02:10:27.414Z,12.20
2022-11-07T02:12:53.739Z,12.19
2022-11-07T02:15:20.116Z,12.19
2022-11-07T02:17:46.444Z,12.19
2022-11-07T02:20:12.762Z,12.17
2022-11-07T02:22:39.142Z,12.12
2022-11-07T02:25:05.479Z,12.10
2022-11-07T02:27:31.820Z,12.08
2022-11-07T02:29:58.194Z,12.06
2022-11-07T02:32:24.514Z,12.04
2022-11-07T02:34:50.857Z,12.02
2022-11-07T02:37:17.234Z,12.00
2022-11-07T02:39:43.570Z,11.98
2022-11-07T02:42:09.884Z,11.96
2022-11-07T02:44:36.212Z,11.95
2022-11-07T02:47:02.525Z,11.96
2022-11-07T02:49:28.848Z,11.96
2022-11-07T02:51:55.230Z,11.95
2022-11-07T02:54:21.610Z,11.95
2022-11-07T02:56:47.909Z,11.94
2022-11-07T02:59:14.296Z,11.94
2022-11-07T03:01:40.650Z,11.93
2022-11-07T03:04:06.921Z,11.93
2022-11-07T03:06:33.275Z,11.92
2022-11-07T03:08:59.598Z,11.90
2022-11-07T03:11:25.938Z,11.87
2022-11-07T03:13:52.320Z,11.86
2022-11-07T03:16:18.658Z,11.86
2022-11-07T03:18:44.999Z,11.85
2022-11-07T03:21:11.316Z,11.85
2022-11-07T03:23:37.708Z,11.85
2022-11-07T03:26:04.013Z,11.83
2022-11-07T03:28:30.351Z,11.80
2022-11-07T03:30:56.692Z,11.77
2022-11-07T03:33:23.012Z,11.75
2022-11-07T03:35:49.354Z,11.74
2022-11-07T03:38:15.697Z,11.71
2022-11-07T03:40:42.030Z,11.69
2022-11-07T03:43:08.377Z,11.69
2022-11-07T03:45:34.717Z,11.67
2022-11-07T03:48:01.067Z,11.64
2022-11-07T03:50:27.381Z,11.62
2022-11-07T03:52:53.755Z,11.62
2022-11-07T03:55:20.068Z,11.60
2022-11-07T03:57:46.393Z,11.60
2022-11-07T04:00:12.772Z,11.60
2022-11-07T04:02:39.273Z,11.59
2022-11-07T04:05:05.426Z,11.58
2022-11-07T04:07:31.768Z,11.56
2022-11-07T04:09:58.107Z,11.57
2022-11-07T04:12:24.425Z,11.57
2022-11-07T04:14:50.769Z,11.56
2022-11-07T04:17:17.112Z,11.56
2022-11-07T04:19:43.458Z,11.58
2022-11-07T04:22:09.812Z,11.59
2022-11-07T04:24:37.492Z,11.60
2022-11-07T04:27:02.469Z,11.62
2022-11-07T04:29:28.815Z,11.63
2022-11-07T04:31:55.136Z,11.65
2022-11-07T04:34:21.477Z,11.67
2022-11-07T04:36:47.843Z,11.67
2022-11-07T04:39:14.158Z,11.69
2022-11-07T04:41:40.482Z,11.70
2022-11-07T04:44:06.803Z,11.71
2022-11-07T04:46:33.131Z,11.71
2022-11-07T04:48:59.469Z,11.73
2022-11-07T04:51:25.793Z,11.74
2022-11-07T04:53:52.112Z,11.74
2022-11-07T04:56:18.458Z,11.75
2022-11-07T04:58:44.793Z,11.76
2022-11-07T05:01:11.135Z,11.78
2022-11-07T05:03:41.513Z,11.78
2022-11-07T05:06:03.831Z,11.79
2022-11-07T05:08:30.147Z,11.79
2022-11-07T05:10:56.504Z,11.79
2022-11-07T05:13:22.860Z,11.82
2022-11-07T05:15:49.181Z,11.83
2022-11-07T05:18:15.500Z,11.86
2022-11-07T05:20:41.844Z,11.88
2022-11-07T05:23:08.160Z,11.91
2022-11-07T05:25:34.515Z,11.94
2022-11-07T05:28:00.834Z,11.96
2022-11-07T05:30:27.198Z,11.98
2022-11-07T05:32:53.518Z,12.23
2022-11-07T05:35:19.847Z,12.53
2022-11-07T05:37:46.203Z,12.74
2022-11-07T05:40:12.541Z,12.90
2022-11-07T05:42:38.871Z,12.94
2022-11-07T05:45:05.225Z,13.01
2022-11-07T05:47:31.549Z,13.10
2022-11-07T05:49:57.875Z,13.17
2022-11-07T05:52:24.229Z,13.24
2022-11-07T05:54:50.571Z,13.12
2022-11-07T05:57:16.893Z,12.95
2022-11-07T05:59:43.588Z,12.85
2022-11-07T06:02:10.019Z,12.76
2022-11-07T06:04:36.255Z,12.66
2022-11-07T06:07:02.632Z,12.62
2022-11-07T06:09:29.048Z,12.61
2022-11-07T06:11:55.364Z,12.64
2022-11-07T06:14:21.753Z,12.62
2022-11-07T06:16:48.071Z,12.59
2022-11-07T06:19:14.394Z,12.62
2022-11-07T06:21:40.730Z,12.66
2022-11-07T06:24:08.849Z,12.71
2022-11-07T06:26:33.439Z,12.74
2022-11-07T06:28:59.778Z,12.73
2022-11-07T06:31:26.097Z,12.72
2022-11-07T06:33:52.446Z,12.73
2022-11-07T06:36:18.784Z,12.71
2022-11-07T06:38:45.105Z,12.74
2022-11-07T06:41:11.447Z,12.79
2022-11-07T06:43:37.790Z,12.83
2022-11-07T06:46:04.107Z,12.85
2022-11-07T06:48:30.448Z,12.88
2022-11-07T06:50:56.815Z,12.91
2022-11-07T06:53:23.142Z,12.94
2022-11-07T06:55:49.502Z,12.96
2022-11-07T06:58:15.842Z,12.99
2022-11-07T07:00:42.205Z,13.03
2022-11-07T07:03:08.579Z,13.06
2022-11-07T07:05:34.885Z,13.08
2022-11-07T07:08:01.209Z,13.10
2022-11-07T07:10:27.551Z,13.13
2022-11-07T07:12:53.909Z,13.17
2022-11-07T07:15:20.223Z,13.18
2022-11-07T07:17:46.572Z,13.19
2022-11-07T07:20:12.896Z,13.19
2022-11-07T07:22:39.241Z,13.19
2022-11-07T07:25:05.596Z,13.21
2022-11-07T07:27:31.941Z,13.24
2022-11-07T07:29:58.259Z,13.26
2022-11-07T07:32:24.587Z,13.28
2022-11-07T07:34:50.906Z,13.32
2022-11-07T07:37:17.277Z,13.35
2022-11-07T07:39:43.613Z,13.39
2022-11-07T07:42:09.952Z,13.42
2022-11-07T07:44:36.319Z,13.44
2022-11-07T07:47:04.918Z,13.43
2022-11-07T07:49:28.975Z,13.45
2022-11-07T07:51:55.302Z,13.47
2022-11-07T07:54:21.622Z,13.52
2022-11-07T07:56:47.965Z,13.56
2022-11-07T07:59:14.304Z,13.60
2022-11-07T08:01:40.743Z,13.62
2022-11-07T08:04:06.985Z,13.67
2022-11-07T08:06:33.349Z,13.72
2022-11-07T08:08:59.662Z,13.77
2022-11-07T08:11:26.009Z,13.85
2022-11-07T08:13:53.144Z,13.94
2022-11-07T08:16:18.715Z,14.02
2022-11-07T08:18:45.027Z,14.10
2022-11-07T08:21:11.419Z,14.18
2022-11-07T08:23:37.752Z,14.25
2022-11-07T08:26:04.080Z,14.31
2022-11-07T08:28:30.433Z,14.36
2022-11-07T08:30:56.776Z,14.44
2022-11-07T08:33:23.147Z,14.53
2022-11-07T08:35:49.417Z,14.62
2022-11-07T08:38:15.781Z,14.68
2022-11-07T08:40:42.125Z,14.72
2022-11-07T08:43:08.440Z,14.74
2022-11-07T08:45:34.763Z,14.74
2022-11-07T08:48:01.124Z,14.74
2022-11-07T08:50:27.466Z,14.77
2022-11-07T08:52:58.197Z,14.81
2022-11-07T08:55:20.148Z,14.86
2022-11-07T08:57:46.502Z,14.95
2022-11-07T09:00:12.848Z,15.04
2022-11-07T09:03:17.797Z,15.11
2022-11-07T09:05:05.538Z,15.16
2022-11-07T09:07:31.844Z,15.18
2022-11-07T09:09:58.211Z,15.21
2022-11-07T09:12:24.575Z,15.27
2022-11-07T09:14:50.914Z,15.30
2022-11-07T09:17:17.249Z,15.41
2022-11-07T09:19:43.573Z,15.60
2022-11-07T09:22:09.916Z,15.74
2022-11-07T09:24:36.263Z,15.84
2022-11-07T09:27:02.588Z,16.00
2022-11-07T09:29:28.909Z,16.21
2022-11-07T09:31:55.249Z,16.42
2022-11-07T09:34:21.594Z,16.68
2022-11-07T09:36:47.968Z,17.00
2022-11-07T09:39:14.292Z,17.25
2022-11-07T09:41:40.631Z,17.43
2022-11-07T09:44:07.002Z,17.61
2022-11-07T09:46:33.341Z,17.64
2022-11-07T09:48:59.678Z,17.68
2022-11-07T09:51:26.033Z,17.63
2022-11-07T09:53:52.374Z,17.56
2022-11-07T09:56:18.712Z,17.51
2022-11-07T09:58:45.082Z,17.43
2022-11-07T10:01:11.507Z,17.36
2022-11-07T10:03:37.722Z,17.29
2022-11-07T10:06:04.045Z,17.25
2022-11-07T10:08:30.393Z,17.20
2022-11-07T10:10:56.733Z,17.19
2022-11-07T10:13:23.072Z,17.18
2022-11-07T10:15:49.414Z,17.20
2022-11-07T10:18:15.751Z,17.23
2022-11-07T10:20:42.106Z,17.26
2022-11-07T10:23:08.452Z,17.42
2022-11-07T10:25:34.791Z,17.61
2022-11-07T10:28:01.136Z,17.76
2022-11-07T10:30:27.491Z,18.02
2022-11-07T10:32:53.840Z,18.33
2022-11-07T10:35:20.158Z,18.65
2022-11-07T10:37:46.505Z,18.90
2022-11-07T10:40:12.823Z,19.24
2022-11-07T10:42:39.170Z,19.53
2022-11-07T10:45:05.546Z,19.69
2022-11-07T10:47:31.814Z,19.87
2022-11-07T10:49:58.141Z,20.19
2022-11-07T10:52:24.592Z,20.53
2022-11-07T10:54:50.930Z,20.75
2022-11-07T10:57:17.262Z,20.85
2022-11-07T10:59:43.604Z,20.99
2022-11-07T11:02:10.032Z,21.09
2022-11-07T11:04:36.294Z,21.19
2022-11-07T11:07:02.633Z,21.35
2022-11-07T11:09:28.992Z,21.53
2022-11-07T11:11:55.319Z,21.65
2022-11-07T11:14:21.639Z,21.76
2022-11-07T11:16:48.045Z,22.01
2022-11-07T11:19:14.343Z,22.27
2022-11-07T11:21:40.665Z,22.33
2022-11-07T11:24:07.049Z,22.22
2022-11-07T11:26:33.394Z,22.29
2022-11-07T11:28:59.710Z,22.40
2022-11-07T11:31:26.045Z,22.46
2022-11-07T11:33:52.393Z,22.59
2022-11-07T11:36:18.723Z,22.57
2022-11-07T11:38:45.101Z,22.66
2022-11-07T11:41:11.423Z,22.69
2022-11-07T11:43:37.743Z,22.74
2022-11-07T11:46:04.090Z,22.73
2022-11-07T11:48:30.471Z,22.72
2022-11-07T11:50:56.836Z,22.68
2022-11-07T11:53:23.174Z,22.73
2022-11-07T11:55:52.235Z,22.68
2022-11-07T11:58:15.909Z,22.71
2022-11-07T12:00:42.356Z,22.83
2022-11-07T12:03:08.662Z,22.91
2022-11-07T12:05:35.008Z,22.97
2022-11-07T12:08:01.348Z,22.96
2022-11-07T12:10:27.706Z,22.96
2022-11-07T12:12:54.089Z,22.95
2022-11-07T12:15:20.414Z,22.94
2022-11-07T12:17:46.786Z,22.98
2022-11-07T12:20:13.194Z,23.04
2022-11-07T12:22:39.457Z,23.11
2022-11-07T12:25:05.774Z,23.18
2022-11-07T12:27:32.148Z,23.29
2022-11-07T12:29:58.478Z,23.34
2022-11-07T12:32:24.837Z,23.29
2022-11-07T12:34:51.201Z,23.11
2022-11-07T12:37:17.540Z,23.05
2022-11-07T12:39:43.888Z,23.10
2022-11-07T12:42:10.243Z,23.06
2022-11-07T12:44:36.590Z,22.97
2022-11-07T12:47:02.939Z,22.88
2022-11-07T12:49:29.284Z,22.85
2022-11-07T12:51:55.626Z,22.87
2022-11-07T12:54:21.991Z,22.78
2022-11-07T12:56:48.338Z,22.70
2022-11-07T12:59:14.673Z,22.71
2022-11-07T13:01:41.137Z,22.68
2022-11-07T13:04:07.431Z,22.71
2022-11-07T13:06:33.815Z,22.78
2022-11-07T13:09:00.150Z,22.89
2022-11-07T13:11:26.436Z,22.89
2022-11-07T13:13:52.766Z,22.86
2022-11-07T13:16:19.111Z,22.68
2022-11-07T13:18:45.462Z,22.51
2022-11-07T13:21:11.788Z,22.41
2022-11-07T13:23:38.128Z,22.38
2022-11-07T13:26:20.333Z,22.39
2022-11-07T13:28:30.796Z,22.38
2022-11-07T13:30:57.302Z,22.37
2022-11-07T13:33:23.618Z,22.34
2022-11-07T13:35:49.960Z,22.25
2022-11-07T13:38:16.314Z,22.18
2022-11-07T13:40:42.659Z,22.12
2022-11-07T13:43:08.998Z,22.02
2022-11-07T13:45:35.333Z,21.90
2022-11-07T13:48:01.674Z,21.76
2022-11-07T13:50:28.020Z,21.62
2022-11-07T13:52:54.340Z,21.47
2022-11-07T13:55:20.675Z,21.41
2022-11-07T13:57:47.012Z,21.33
2022-11-07T14:00:13.438Z,21.26
2022-11-07T14:02:39.777Z,21.15
2022-11-07T14:05:21.544Z,21.05
2022-11-07T14:07:32.460Z,20.94
2022-11-07T14:09:58.821Z,20.81
2022-11-07T14:12:25.157Z,20.73
2022-11-07T14:14:51.524Z,20.65
2022-11-07T14:17:17.847Z,20.58
2022-11-07T14:19:44.240Z,20.47
2022-11-07T14:22:14.644Z,20.35
2022-11-07T14:24:36.880Z,20.29
2022-11-07T14:27:03.261Z,20.24
2022-11-07T14:29:29.593Z,20.20
2022-11-07T14:31:55.941Z,20.13
2022-11-07T14:34:22.393Z,20.08
2022-11-07T14:36:49.134Z,20.00
2022-11-07T14:39:15.900Z,19.92
2022-11-07T14:41:41.756Z,19.81
2022-11-07T14:44:08.089Z,19.71
2022-11-07T14:46:34.409Z,19.62
2022-11-07T14:49:00.770Z,19.54
2022-11-07T14:51:27.127Z,19.46
2022-11-07T14:53:53.527Z,19.41
2022-11-07T14:56:19.852Z,19.34
2022-11-07T14:58:46.225Z,19.28
2022-11-07T15:01:12.610Z,19.21
2022-11-07T15:03:38.904Z,19.12
2022-11-07T15:06:05.219Z,19.03
2022-11-07T15:08:31.635Z,18.95
2022-11-07T15:10:57.931Z,18.88
2022-11-07T15:13:26.175Z,18.83
2022-11-07T15:15:52.557Z,18.77
2022-11-07T15:18:19.118Z,18.71
2022-11-07T15:20:45.218Z,18.65
2022-11-07T15:23:11.552Z,18.57
2022-11-07T15:25:37.903Z,18.51
2022-11-07T15:28:04.261Z,18.44
2022-11-07T15:30:30.620Z,18.38
2022-11-07T15:32:56.968Z,18.34
2022-11-07T15:35:42.929Z,18.30
2022-11-07T15:37:49.661Z,18.31
2022-11-07T15:40:15.995Z,18.29
2022-11-07T15:42:42.400Z,18.23
2022-11-07T15:45:08.740Z,18.15
2022-11-07T15:47:35.086Z,18.06
2022-11-07T15:50:01.407Z,18.00
2022-11-07T15:52:27.747Z,17.95
2022-11-07T15:54:54.064Z,17.90
2022-11-07T15:57:20.408Z,17.86
2022-11-07T15:59:46.778Z,17.79
2022-11-07T16:02:13.262Z,17.75
2022-11-07T16:04:39.972Z,17.68
2022-11-07T16:07:05.851Z,17.62
2022-11-07T16:09:32.197Z,17.57
2022-11-07T16:11:58.526Z,17.53
2022-11-07T16:16:51.207Z,17.44
2022-11-07T16:19:17.552Z,17.37
2022-11-07T16:21:43.914Z,17.31
2022-11-07T16:24:10.270Z,17.27
2022-11-07T16:26:36.686Z,17.23
2022-11-07T16:29:03.037Z,17.20
2022-11-07T16:31:29.383Z,17.17
2022-11-07T16:33:55.769Z,17.13
2022-11-07T16:36:22.062Z,17.10
2022-11-07T16:38:48.381Z,17.05
2022-11-07T16:41:14.736Z,17.03
2022-11-07T16:43:41.049Z,16.99
2022-11-07T16:46:07.384Z,16.95
2022-11-07T16:48:33.742Z,16.91
2022-11-07T16:51:00.098Z,16.86
2022-11-07T16:53:26.429Z,16.80
2022-11-07T16:55:54.014Z,16.77
2022-11-07T16:58:19.128Z,16.74
2022-11-07T17:00:45.466Z,16.70
2022-11-07T17:03:11.810Z,16.66
2022-11-07T17:05:38.115Z,16.62
2022-11-07T17:08:04.461Z,16.58
2022-11-07T17:10:30.847Z,16.56
2022-11-07T17:12:57.179Z,16.53
2022-11-07T17:15:23.524Z,16.51
2022-11-07T17:17:49.881Z,16.47
2022-11-07T17:20:28.453Z,16.44
2022-11-07T17:22:42.570Z,16.42
2022-11-07T17:25:08.895Z,16.38
2022-11-07T17:27:35.237Z,16.28
2022-11-07T17:30:05.898Z,16.21
2022-11-07T17:32:27.907Z,16.16
2022-11-07T17:35:18.127Z,16.13
2022-11-07T17:37:20.644Z,16.12
2022-11-07T17:39:47.032Z,16.07
2022-11-07T17:42:13.371Z,16.05
2022-11-07T17:44:39.725Z,16.06
2022-11-07T17:47:06.066Z,16.06
2022-11-07T17:49:32.416Z,16.04
2022-11-07T17:51:58.741Z,15.99
2022-11-07T17:54:29.347Z,15.96
2022-11-07T17:56:51.446Z,15.92
2022-11-07T17:59:17.769Z,15.89
2022-11-07T18:01:44.184Z,15.85
2022-11-07T18:04:10.446Z,15.82
2022-11-07T18:06:36.889Z,15.82
2022-11-07T18:09:03.260Z,15.80
2022-11-07T18:11:29.614Z,15.81
2022-11-07T18:13:55.996Z,15.81
2022-11-07T18:16:22.317Z,15.77
2022-11-07T18:18:48.676Z,15.75
2022-11-07T18:21:15.048Z,15.68
2022-11-07T18:23:41.373Z,15.66
2022-11-07T18:26:07.695Z,15.66
2022-11-07T18:28:34.132Z,15.63
2022-11-07T18:31:00.530Z,15.60
2022-11-07T18:33:26.986Z,15.57
2022-11-07T18:35:53.330Z,15.52
2022-11-07T18:38:19.742Z,15.47
2022-11-07T18:40:46.194Z,15.45
2022-11-07T18:43:12.533Z,15.43
2022-11-07T18:45:38.879Z,15.38
2022-11-07T18:48:05.243Z,15.34
2022-11-07T18:50:31.576Z,15.27
2022-11-07T18:52:57.906Z,15.26
2022-11-07T18:55:27.479Z,15.20
2022-11-07T18:57:50.654Z,15.15
2022-11-07T19:00:16.953Z,15.17
2022-11-07T19:02:43.289Z,15.20
2022-11-07T19:05:09.615Z,15.25
2022-11-07T19:07:35.945Z,15.24
2022-11-07T19:10:02.301Z,15.20
2022-11-07T19:12:28.741Z,15.16
2022-11-07T19:14:55.028Z,15.10
2022-11-07T19:17:21.671Z,15.05
2022-11-07T19:19:47.989Z,15.04
2022-11-07T19:22:14.377Z,15.05
2022-11-07T19:24:40.721Z,15.06
2022-11-07T19:27:07.065Z,15.03
2022-11-07T19:29:33.429Z,14.99
2022-11-07T19:31:59.748Z,14.97
2022-11-07T19:34:26.095Z,14.98
2022-11-07T19:36:52.449Z,14.95
2022-11-07T19:39:18.802Z,14.93
2022-11-07T19:41:45.189Z,14.92
2022-11-07T19:44:11.504Z,14.90
2022-11-07T19:46:37.830Z,14.88
2022-11-07T19:49:04.182Z,14.85
2022-11-07T19:51:30.507Z,14.80
2022-11-07T19:53:56.859Z,14.78
2022-11-07T19:56:23.221Z,14.75
2022-11-07T19:58:49.559Z,14.73
2022-11-07T20:01:15.930Z,14.73
2022-11-07T20:03:42.234Z,14.70
2022-11-07T20:06:08.627Z,14.68
2022-11-07T20:08:34.953Z,14.68
2022-11-07T20:11:01.398Z,14.67
2022-11-07T20:13:27.764Z,14.64
2022-11-07T20:15:54.090Z,14.64
2022-11-07T20:18:20.413Z,14.66
2022-11-07T20:20:46.746Z,14.62
2022-11-07T20:23:13.090Z,14.62
2022-11-07T20:25:39.427Z,14.61
2022-11-07T20:28:05.801Z,14.65
2022-11-07T20:30:32.160Z,14.67
2022-11-07T20:32:58.508Z,14.66
2022-11-07T20:35:24.876Z,14.64
2022-11-07T20:37:51.227Z,14.60
2022-11-07T20:40:17.621Z,14.57
2022-11-07T20:42:44.001Z,14.54
2022-11-07T20:45:10.326Z,14.53
2022-11-07T20:47:36.735Z,14.51
2022-11-07T20:50:03.219Z,14.50
2022-11-07T20:52:29.609Z,14.52
2022-11-07T20:54:55.963Z,14.54
2022-11-07T20:57:22.343Z,14.54
2022-11-07T20:59:48.640Z,14.55
2022-11-07T21:02:15.021Z,14.55
2022-11-07T21:05:03.336Z,14.54
2022-11-07T21:07:07.692Z,14.53
2022-11-07T21:09:34.151Z,14.53
2022-11-07T21:12:00.518Z,14.52
2022-11-07T21:14:26.821Z,14.51
2022-11-07T21:16:53.210Z,14.49
2022-11-07T21:19:19.543Z,14.47
2022-11-07T21:21:45.859Z,14.47
2022-11-07T21:24:12.193Z,14.45
2022-11-07T21:26:38.549Z,14.44
2022-11-07T21:29:04.893Z,14.43
2022-11-07T21:31:31.230Z,14.43
2022-11-07T21:33:57.586Z,14.42
2022-11-07T21:36:23.915Z,14.41
2022-11-07T21:38:50.311Z,14.40
2022-11-07T21:41:16.620Z,14.41
2022-11-07T21:43:42.950Z,14.42
2022-11-07T21:46:09.351Z,14.39
2022-11-07T21:48:35.665Z,14.37
2022-11-07T21:51:01.984Z,14.37
2022-11-07T21:53:28.353Z,14.36
2022-11-07T21:55:54.679Z,14.34
2022-11-07T21:58:21.004Z,14.33
2022-11-07T22:00:47.337Z,14.32
2022-11-07T22:03:13.796Z,14.30
2022-11-07T22:05:39.996Z,14.28
2022-11-07T22:08:06.402Z,14.27
2022-11-07T22:10:32.720Z,14.26
2022-11-07T22:12:59.091Z,14.23
2022-11-07T22:15:25.368Z,14.20
2022-11-07T22:17:51.713Z,14.20
2022-11-07T22:20:18.062Z,14.18
2022-11-07T22:22:44.387Z,14.18
2022-11-07T22:25:10.729Z,14.18
2022-11-07T22:27:37.090Z,14.17
2022-11-07T22:30:03.415Z,14.18
2022-11-07T22:32:29.756Z,14.17
2022-11-07T22:34:56.084Z,14.16
2022-11-07T22:37:22.431Z,14.16
2022-11-07T22:39:48.752Z,14.16
2022-11-07T22:42:18.515Z,14.16
2022-11-07T22:44:41.475Z,14.15
2022-11-07T22:47:07.802Z,14.14
2022-11-07T22:49:34.143Z,14.12
2022-11-07T22:52:00.522Z,14.10
2022-11-07T22:54:26.835Z,14.06
2022-11-07T22:56:53.166Z,14.04
2022-11-07T22:59:19.511Z,14.03
2022-11-07T23:01:45.913Z,14.03
2022-11-07T23:04:12.206Z,14.03
2022-11-07T23:06:38.540Z,14.02
2022-11-07T23:09:04.896Z,14.01
2022-11-07T23:11:48.374Z,14.00
2022-11-07T23:13:57.572Z,14.00
2022-11-07T23:16:25.770Z,13.99
2022-11-07T23:18:50.327Z,13.98
2022-11-07T23:21:16.650Z,13.97
2022-11-07T23:23:42.992Z,13.97
2022-11-07T23:26:09.377Z,13.96
2022-11-07T23:28:35.727Z,13.96
2022-11-07T23:31:02.076Z,13.95
2022-11-07T23:33:28.426Z,13.93
2022-11-07T23:35:54.775Z,13.92
2022-11-07T23:38:21.101Z,13.90
2022-11-07T23:40:47.426Z,13.91
2022-11-07T23:43:13.766Z,13.93
2022-11-07T23:45:40.099Z,13.94
2022-11-07T23:48:06.419Z,13.92
2022-11-07T23:50:32.763Z,13.90
2022-11-07T23:52:59.132Z,13.89
2022-11-07T23:55:25.479Z,13.86
2022-11-07T23:57:51.821Z,13.82
